Time;durP1;ratioP1;P1;durP2;ratioP2;P2;SDS_P1;SDS_P2;PMS_P1;PMS_P2;Temp;Humidity;BMP_temperature;BMP_pressure;BME280_temperature;BME280_humidity;BME280_pressure;Samples;Min_cycle;Max_cycle;Signal;HPM_P1;HPM_P2
2022/12/01 00:02:23;;;;;;;40.00;18.47;;;6.80;99.90;;;;;;4982928;28;20490;-79
2022/12/01 00:04:50;;;;;;;43.10;21.10;;;6.80;99.90;;;;;;4982920;28;20489;-79
2022/12/01 00:07:17;;;;;;;49.03;22.40;;;6.80;99.90;;;;;;4982846;28;20901;-81
2022/12/01 00:12:34;;;;;;;44.00;21.87;;;6.80;99.90;;;;;;4963069;28;20451;-79
2022/12/01 00:15:00;;;;;;;47.00;20.87;;;6.80;99.90;;;;;;4979866;28;20717;-79
2022/12/01 00:17:29;;;;;;;46.17;18.03;;;6.80;99.90;;;;;;4979515;28;20533;-78
2022/12/01 00:19:56;;;;;;;44.07;19.67;;;6.90;99.90;;;;;;4980200;28;20459;-79
2022/12/01 00:22:23;;;;;;;40.57;20.73;;;6.90;99.90;;;;;;4980059;28;20832;-78
2022/12/01 00:24:50;;;;;;;42.97;20.67;;;7.00;99.90;;;;;;4981096;28;20891;-78
2022/12/01 00:27:17;;;;;;;43.90;22.30;;;7.10;99.90;;;;;;4968916;28;20569;-78
2022/12/01 00:29:45;;;;;;;50.90;22.80;;;7.10;99.90;;;;;;4980804;28;20491;-82
2022/12/01 00:32:11;;;;;;;54.47;24.60;;;7.00;99.90;;;;;;4980053;28;20515;-80
2022/12/01 00:34:40;;;;;;;54.53;23.50;;;7.00;99.90;;;;;;4981064;28;20545;-80
2022/12/01 00:37:07;;;;;;;52.63;22.63;;;6.80;99.90;;;;;;4981043;28;20565;-81
2022/12/01 00:39:33;;;;;;;61.90;26.60;;;6.90;99.90;;;;;;4980067;28;20451;-79
2022/12/01 00:42:00;;;;;;;70.03;28.80;;;6.90;99.90;;;;;;4978970;28;20828;-80
2022/12/01 00:44:27;;;;;;;62.27;27.00;;;6.70;99.90;;;;;;4979538;28;20546;-80
2022/12/01 00:46:54;;;;;;;74.83;28.97;;;6.80;99.90;;;;;;4978760;28;20573;-78
2022/12/01 00:49:21;;;;;;;51.83;25.10;;;6.60;99.90;;;;;;4979875;28;20451;-79
2022/12/01 00:51:49;;;;;;;48.13;22.93;;;6.70;99.90;;;;;;4982870;28;20503;-80
2022/12/01 00:54:16;;;;;;;71.83;27.73;;;6.80;99.90;;;;;;4982153;28;20515;-80
2022/12/01 00:56:42;;;;;;;59.93;25.67;;;6.70;99.90;;;;;;4983005;28;20549;-78
2022/12/01 00:59:10;;;;;;;59.60;25.23;;;6.80;99.90;;;;;;4982720;28;20455;-81
2022/12/01 01:01:37;;;;;;;61.50;27.43;;;6.90;99.90;;;;;;4981617;28;20460;-79
2022/12/01 01:04:04;;;;;;;55.53;22.57;;;6.90;99.90;;;;;;4983528;28;20486;-81
2022/12/01 01:06:31;;;;;;;49.97;24.70;;;6.90;99.90;;;;;;4982962;28;20565;-80
2022/12/01 01:08:59;;;;;;;51.50;23.80;;;7.00;99.90;;;;;;4983432;28;20538;-81
2022/12/01 01:11:26;;;;;;;65.40;25.17;;;7.00;99.90;;;;;;4982582;28;20510;-81
2022/12/01 01:13:53;;;;;;;60.73;24.77;;;7.00;99.90;;;;;;4983449;28;20542;-81
2022/12/01 01:16:21;;;;;;;76.07;32.87;;;7.10;99.90;;;;;;4982402;28;20557;-82
2022/12/01 01:18:49;;;;;;;59.13;25.20;;;7.00;99.90;;;;;;4982310;28;20580;-80
2022/12/01 01:21:18;;;;;;;54.43;24.60;;;7.00;99.90;;;;;;4982433;28;20459;-78
2022/12/01 01:23:45;;;;;;;72.43;28.47;;;7.10;99.90;;;;;;4981463;28;20494;-79
2022/12/01 01:26:15;;;;;;;65.10;27.03;;;7.00;99.90;;;;;;4978045;28;20508;-78
2022/12/01 01:28:42;;;;;;;64.17;26.50;;;7.00;99.90;;;;;;4979217;28;20542;-82
2022/12/01 01:31:11;;;;;;;54.63;24.93;;;7.00;99.90;;;;;;4978632;28;20834;-80
2022/12/01 01:33:38;;;;;;;60.93;26.30;;;7.00;99.90;;;;;;4963829;28;20460;-80
2022/12/01 01:36:05;;;;;;;57.23;26.10;;;6.90;99.90;;;;;;4978703;28;22186;-80
2022/12/01 01:38:33;;;;;;;56.10;25.40;;;6.90;99.90;;;;;;4978996;28;20557;-79
2022/12/01 01:41:00;;;;;;;53.90;23.73;;;6.90;99.90;;;;;;4977909;28;20465;-80
2022/12/01 01:43:46;;;;;;;51.07;23.37;;;6.90;99.90;;;;;;4978583;28;20461;-81
2022/12/01 01:46:15;;;;;;;50.93;24.30;;;6.90;99.90;;;;;;4978120;28;20514;-79
2022/12/01 01:48:46;;;;;;;68.20;26.83;;;7.00;99.90;;;;;;4978543;28;20494;-79
2022/12/01 01:51:15;;;;;;;62.03;26.33;;;6.90;99.90;;;;;;4979949;28;20478;-78
2022/12/01 01:53:43;;;;;;;56.30;24.07;;;7.00;99.90;;;;;;4985214;28;20451;-80
2022/12/01 01:56:10;;;;;;;61.70;25.90;;;7.00;99.90;;;;;;4985534;28;20505;-80
2022/12/01 01:58:38;;;;;;;66.97;27.70;;;7.10;99.90;;;;;;4986344;28;20519;-78
2022/12/01 02:01:07;;;;;;;45.77;22.50;;;7.00;99.90;;;;;;4986941;28;20498;-78
2022/12/01 02:03:36;;;;;;;37.80;21.10;;;7.00;99.90;;;;;;4985905;28;20460;-79
2022/12/01 02:06:04;;;;;;;51.83;21.77;;;7.00;99.90;;;;;;4986939;28;20547;-77
2022/12/01 02:08:34;;;;;;;48.30;20.90;;;7.00;99.90;;;;;;4986154;28;20543;-78
2022/12/01 02:11:29;;;;;;;46.07;20.87;;;7.00;99.90;;;;;;4986118;28;20545;-78
2022/12/01 02:14:08;;;;;;;45.07;21.43;;;7.10;99.90;;;;;;4939142;28;20943;-78
2022/12/01 02:16:45;;;;;;;38.40;18.60;;;7.10;99.90;;;;;;4985630;28;20510;-79
2022/12/01 02:19:32;;;;;;;40.03;20.17;;;7.10;99.90;;;;;;4986420;28;20538;-79
2022/12/01 02:22:09;;;;;;;41.00;20.93;;;7.10;99.90;;;;;;4986199;28;20542;-80
2022/12/01 02:24:52;;;;;;;48.63;22.77;;;7.20;99.90;;;;;;4985980;28;20545;-78
2022/12/01 02:27:30;;;;;;;53.00;22.10;;;7.10;99.90;;;;;;4979098;28;20533;-82
2022/12/01 02:30:11;;;;;;;43.50;20.47;;;7.00;99.90;;;;;;4984651;28;20526;-80
2022/12/01 02:32:50;;;;;;;55.57;23.43;;;7.10;99.90;;;;;;4987231;28;20550;-79
2022/12/01 02:35:24;;;;;;;44.73;23.20;;;7.00;99.90;;;;;;4972647;28;20546;-78
2022/12/01 02:38:03;;;;;;;45.07;20.50;;;7.00;99.90;;;;;;4987872;28;20478;-78
2022/12/01 02:40:33;;;;;;;44.73;20.93;;;7.00;99.90;;;;;;4987539;28;20532;-80
2022/12/01 02:43:04;;;;;;;42.07;19.30;;;7.00;99.90;;;;;;4986425;28;20523;-78
2022/12/01 02:45:37;;;;;;;38.47;18.73;;;7.00;99.90;;;;;;4976558;28;20479;-78
2022/12/01 02:48:11;;;;;;;38.00;21.23;;;7.00;99.90;;;;;;4975655;28;21007;-78
2022/12/01 02:50:39;;;;;;;37.40;18.30;;;6.90;99.90;;;;;;4977265;28;20932;-79
2022/12/01 02:53:10;;;;;;;38.70;19.93;;;6.90;99.90;;;;;;4976696;28;20537;-81
2022/12/01 02:55:37;;;;;;;33.93;18.03;;;6.90;99.90;;;;;;4977691;28;20542;-78
2022/12/01 02:58:13;;;;;;;41.20;18.20;;;7.00;99.90;;;;;;4976550;28;20999;-78
2022/12/01 03:00:41;;;;;;;46.87;19.17;;;7.00;99.90;;;;;;4976759;28;20447;-79
2022/12/01 03:03:25;;;;;;;34.90;17.57;;;6.90;99.90;;;;;;4976042;28;20963;-77
2022/12/01 03:06:00;;;;;;;33.73;17.50;;;6.90;99.90;;;;;;4960040;28;20443;-80
2022/12/01 03:08:44;;;;;;;41.47;20.77;;;6.90;99.90;;;;;;4967934;28;20527;-79
2022/12/01 03:11:25;;;;;;;35.10;17.93;;;6.80;99.90;;;;;;4979938;28;20487;-79
2022/12/01 03:14:01;;;;;;;40.40;18.67;;;7.00;99.90;;;;;;4982639;28;20458;-78
2022/12/01 03:16:37;;;;;;;46.37;19.43;;;7.00;99.90;;;;;;4980407;28;20506;-79
2022/12/01 03:19:09;;;;;;;40.80;19.93;;;6.90;99.90;;;;;;4976332;28;20505;-80
2022/12/01 03:21:40;;;;;;;45.63;18.67;;;6.90;99.90;;;;;;4967092;28;20498;-79
2022/12/01 03:24:15;;;;;;;44.53;20.23;;;6.90;99.90;;;;;;4983365;28;20523;-78
2022/12/01 03:26:47;;;;;;;37.40;18.40;;;6.80;99.90;;;;;;4982282;28;20534;-79
2022/12/01 03:29:17;;;;;;;41.97;19.10;;;6.90;99.90;;;;;;4981236;28;20463;-80
2022/12/01 03:31:48;;;;;;;46.43;19.23;;;7.00;99.90;;;;;;4983297;28;20486;-79
2022/12/01 03:34:23;;;;;;;38.30;18.20;;;7.00;99.90;;;;;;4982444;28;20549;-81
2022/12/01 03:36:55;;;;;;;41.70;18.13;;;6.80;99.90;;;;;;4982518;28;20930;-81
2022/12/01 03:39:25;;;;;;;42.07;19.57;;;6.90;99.90;;;;;;4980650;28;21011;-80
2022/12/01 03:41:59;;;;;;;39.97;17.87;;;6.90;99.90;;;;;;4980830;28;20454;-79
2022/12/01 03:44:32;;;;;;;42.73;18.80;;;6.90;99.90;;;;;;4980769;28;20526;-79
2022/12/01 03:47:03;;;;;;;32.03;16.87;;;6.90;99.90;;;;;;4979578;28;20475;-79
2022/12/01 03:49:32;;;;;;;33.80;18.90;;;6.80;99.90;;;;;;4979839;28;20561;-81
2022/12/01 03:52:08;;;;;;;32.20;17.57;;;6.90;99.90;;;;;;4978996;28;20514;-79
2022/12/01 03:54:46;;;;;;;34.37;16.40;;;6.90;99.90;;;;;;4979606;28;20461;-78
2022/12/01 03:57:17;;;;;;;34.47;16.40;;;6.90;99.90;;;;;;4978878;28;20514;-78
2022/12/01 03:59:45;;;;;;;35.63;16.17;;;7.00;99.90;;;;;;4979903;28;20545;-79
2022/12/01 04:02:12;;;;;;;30.77;16.03;;;6.80;99.90;;;;;;4980174;28;20549;-79
2022/12/01 04:04:40;;;;;;;31.70;15.57;;;6.80;99.90;;;;;;4981613;28;21023;-81
2022/12/01 04:07:12;;;;;;;27.20;14.50;;;6.80;99.90;;;;;;4981943;28;20478;-80
2022/12/01 04:09:39;;;;;;;33.10;17.13;;;6.90;99.90;;;;;;4982030;28;20455;-81
2022/12/01 04:14:50;;;;;;;26.80;15.07;;;6.90;99.90;;;;;;4981456;28;20450;-80
2022/12/01 04:17:17;;;;;;;33.83;16.13;;;7.00;99.90;;;;;;4976676;28;20476;-80
2022/12/01 04:19:46;;;;;;;28.00;16.80;;;7.00;99.90;;;;;;4981436;28;20507;-80
2022/12/01 04:22:12;;;;;;;33.20;16.37;;;7.00;99.90;;;;;;4981498;28;20542;-78
2022/12/01 04:24:39;;;;;;;32.93;16.50;;;7.00;99.90;;;;;;4980988;28;20458;-81
2022/12/01 04:27:06;;;;;;;25.50;14.13;;;7.00;99.90;;;;;;4981628;28;20582;-81
2022/12/01 04:29:33;;;;;;;23.90;14.73;;;7.00;99.90;;;;;;4981766;28;20524;-80
2022/12/01 04:32:00;;;;;;;27.97;15.40;;;7.00;99.90;;;;;;4980578;28;20483;-79
2022/12/01 04:34:27;;;;;;;29.93;15.87;;;7.00;99.90;;;;;;4981392;28;20511;-81
2022/12/01 04:36:55;;;;;;;29.90;15.63;;;7.00;99.90;;;;;;4981834;28;20569;-79
2022/12/01 04:39:22;;;;;;;35.00;16.17;;;7.00;99.90;;;;;;4981682;28;20454;-81
2022/12/01 04:41:49;;;;;;;38.13;17.93;;;7.00;99.90;;;;;;4981747;28;20909;-79
2022/12/01 04:44:15;;;;;;;30.23;15.90;;;6.90;99.90;;;;;;4978121;28;20463;-79
2022/12/01 04:46:42;;;;;;;38.67;17.80;;;6.90;99.90;;;;;;4978929;28;20535;-82
2022/12/01 04:49:09;;;;;;;38.60;18.93;;;6.80;99.90;;;;;;4981966;28;20526;-79
2022/12/01 04:51:36;;;;;;;35.50;17.50;;;6.80;99.90;;;;;;4981962;28;20573;-79
2022/12/01 04:54:05;;;;;;;28.73;15.97;;;6.80;99.90;;;;;;4981131;28;21009;-80
2022/12/01 04:56:31;;;;;;;38.27;18.93;;;6.70;99.90;;;;;;4983695;28;20594;-78
2022/12/01 04:58:58;;;;;;;37.73;18.70;;;6.60;99.90;;;;;;4987185;28;20466;-79
2022/12/01 05:01:25;;;;;;;33.40;16.87;;;6.60;99.90;;;;;;4982028;28;20972;-81
2022/12/01 05:03:52;;;;;;;31.70;17.00;;;6.70;99.90;;;;;;4980902;28;20842;-80
2022/12/01 05:06:22;;;;;;;41.27;17.30;;;6.70;99.90;;;;;;4982587;28;20483;-81
2022/12/01 05:08:49;;;;;;;35.03;16.53;;;6.50;99.90;;;;;;4966202;28;21039;-79
2022/12/01 05:11:18;;;;;;;33.93;17.80;;;6.60;99.90;;;;;;4982242;28;20474;-81
2022/12/01 05:13:47;;;;;;;32.87;17.30;;;6.60;99.90;;;;;;4981647;28;20537;-81
2022/12/01 05:16:16;;;;;;;44.23;18.70;;;6.60;99.90;;;;;;4981306;28;20554;-81
2022/12/01 05:18:46;;;;;;;36.33;18.67;;;6.60;99.90;;;;;;4981731;28;20447;-79
2022/12/01 05:21:12;;;;;;;34.97;20.37;;;6.60;99.90;;;;;;4970826;28;20463;-79
2022/12/01 05:23:39;;;;;;;39.37;18.30;;;6.60;99.90;;;;;;4973334;28;20493;-80
2022/12/01 05:26:08;;;;;;;32.00;16.80;;;6.60;99.90;;;;;;4980811;28;20289;-80
2022/12/01 05:28:37;;;;;;;29.30;16.50;;;6.60;99.90;;;;;;4966065;28;20487;-80
2022/12/01 05:31:04;;;;;;;33.70;17.93;;;6.50;99.90;;;;;;4979770;28;20455;-80
2022/12/01 05:33:31;;;;;;;32.20;17.03;;;6.60;99.90;;;;;;4978427;28;20490;-81
2022/12/01 05:35:58;;;;;;;37.50;17.20;;;6.60;99.90;;;;;;4978768;28;20538;-80
2022/12/01 05:38:25;;;;;;;34.00;18.80;;;6.70;99.90;;;;;;4980694;28;20562;-79
2022/12/01 05:40:52;;;;;;;35.77;18.33;;;6.60;99.90;;;;;;4980481;28;20538;-80
2022/12/01 05:43:19;;;;;;;27.40;16.00;;;6.60;99.90;;;;;;4980913;28;20545;-80
2022/12/01 05:45:48;;;;;;;37.80;19.87;;;6.60;99.90;;;;;;4980154;28;20454;-79
2022/12/01 05:48:15;;;;;;;37.13;20.20;;;6.50;99.90;;;;;;4980991;28;20978;-81
2022/12/01 05:50:42;;;;;;;36.47;18.87;;;6.40;99.90;;;;;;4980303;28;20525;-80
2022/12/01 05:53:11;;;;;;;35.60;17.57;;;6.50;99.90;;;;;;4979589;28;20522;-79
2022/12/01 05:55:38;;;;;;;37.70;18.40;;;6.60;99.90;;;;;;4980149;28;21008;-79
2022/12/01 05:58:05;;;;;;;35.57;19.73;;;6.60;99.90;;;;;;5004578;23;20490;-83
2022/12/01 06:00:32;;;;;;;33.20;17.47;;;6.60;99.90;;;;;;4984562;28;20489;-84
2022/12/01 06:03:01;;;;;;;34.93;17.03;;;6.60;99.90;;;;;;4982917;28;20455;-84
2022/12/01 06:05:28;;;;;;;40.53;20.87;;;6.60;99.90;;;;;;4984840;28;20450;-85
2022/12/01 06:07:55;;;;;;;34.73;16.90;;;6.60;99.90;;;;;;4984688;28;20486;-85
2022/12/01 06:10:22;;;;;;;37.03;18.00;;;6.60;99.90;;;;;;4981402;28;20477;-83
2022/12/01 06:12:48;;;;;;;47.50;20.40;;;6.60;99.90;;;;;;4982047;28;20602;-84
2022/12/01 06:15:15;;;;;;;45.77;22.47;;;6.60;99.90;;;;;;4979772;28;20476;-84
2022/12/01 06:17:42;;;;;;;56.00;23.27;;;6.50;99.90;;;;;;4982570;28;20514;-84
2022/12/01 06:20:12;;;;;;;42.63;21.53;;;6.60;99.90;;;;;;4984907;28;20534;-84
2022/12/01 06:22:38;;;;;;;39.87;19.03;;;6.50;99.90;;;;;;4984838;28;20539;-83
2022/12/01 06:25:06;;;;;;;51.07;22.00;;;6.50;99.90;;;;;;4983350;28;20546;-83
2022/12/01 06:27:33;;;;;;;59.27;23.30;;;6.60;99.90;;;;;;4984158;28;20852;-85
2022/12/01 06:30:00;;;;;;;53.67;24.13;;;6.40;99.90;;;;;;4976650;28;20459;-83
2022/12/01 06:32:27;;;;;;;47.93;19.70;;;6.30;99.90;;;;;;4970988;28;20498;-83
2022/12/01 06:34:53;;;;;;;63.50;23.37;;;6.40;99.90;;;;;;4974158;28;20463;-83
2022/12/01 06:37:22;;;;;;;54.40;23.03;;;6.50;99.90;;;;;;4975745;28;20475;-83
2022/12/01 06:39:48;;;;;;;52.90;24.70;;;6.60;99.90;;;;;;4969093;28;20462;-83
2022/12/01 06:42:15;;;;;;;54.03;22.47;;;6.60;99.90;;;;;;4977110;28;20455;-83
2022/12/01 06:44:42;;;;;;;55.87;23.60;;;6.60;99.90;;;;;;4983641;28;20885;-85
2022/12/01 06:47:09;;;;;;;56.50;24.63;;;6.40;99.90;;;;;;4987536;28;20569;-85
2022/12/01 06:49:36;;;;;;;64.13;27.87;;;6.50;99.90;;;;;;4979385;28;20487;-84
2022/12/01 06:52:03;;;;;;;72.90;25.80;;;6.30;99.90;;;;;;4972547;28;20457;-84
2022/12/01 06:54:32;;;;;;;71.33;29.60;;;6.40;99.90;;;;;;4978368;28;20467;-85
2022/12/01 06:56:59;;;;;;;73.90;29.33;;;6.40;99.90;;;;;;4977505;28;20487;-84
2022/12/01 06:59:26;;;;;;;61.93;26.60;;;6.30;99.90;;;;;;4976496;28;20457;-83
2022/12/01 07:01:53;;;;;;;70.23;28.23;;;6.30;99.90;;;;;;4982087;28;20485;-84
2022/12/01 07:04:20;;;;;;;81.37;30.10;;;6.30;99.90;;;;;;4982929;28;20459;-84
2022/12/01 07:06:46;;;;;;;82.97;30.20;;;6.20;99.90;;;;;;4985586;28;20534;-85
2022/12/01 07:09:13;;;;;;;74.53;28.40;;;6.30;99.90;;;;;;4973448;28;20550;-83
2022/12/01 07:11:41;;;;;;;72.10;26.77;;;6.40;99.90;;;;;;4963910;28;20471;-83
2022/12/01 07:14:16;;;;;;;59.17;24.90;;;6.30;99.90;;;;;;4973780;28;20488;-82
2022/12/01 07:16:43;;;;;;;55.50;25.40;;;6.20;99.90;;;;;;4976295;28;20462;-82
2022/12/01 07:19:10;;;;;;;63.30;25.30;;;6.20;99.90;;;;;;4978959;28;20462;-83
2022/12/01 07:21:36;;;;;;;67.97;25.87;;;6.30;99.90;;;;;;4982897;28;20544;-83
2022/12/01 07:24:03;;;;;;;60.90;25.73;;;6.20;99.90;;;;;;4977110;28;20905;-83
2022/12/01 07:26:30;;;;;;;61.60;26.37;;;6.20;99.90;;;;;;4973703;28;20545;-84
2022/12/01 07:28:58;;;;;;;61.80;25.23;;;6.20;99.90;;;;;;4978269;28;20472;-84
2022/12/01 07:31:25;;;;;;;72.60;25.73;;;6.20;99.90;;;;;;4978972;28;20541;-83
2022/12/01 07:33:52;;;;;;;79.37;29.37;;;6.20;99.90;;;;;;4974151;28;20487;-83
2022/12/01 07:36:19;;;;;;;67.97;26.27;;;6.20;99.90;;;;;;4969870;28;20453;-83
2022/12/01 07:38:46;;;;;;;74.33;27.27;;;6.30;99.90;;;;;;4978131;28;20481;-83
2022/12/01 07:41:14;;;;;;;66.97;27.77;;;6.30;99.90;;;;;;4979165;28;20974;-83
2022/12/01 07:43:42;;;;;;;65.87;28.90;;;6.30;99.90;;;;;;4974952;28;20462;-83
2022/12/01 07:46:12;;;;;;;64.47;27.97;;;6.20;99.90;;;;;;4967627;28;20451;-83
2022/12/01 07:48:40;;;;;;;63.47;25.57;;;6.20;99.90;;;;;;4981144;28;20477;-83
2022/12/01 07:51:08;;;;;;;63.10;26.90;;;6.20;99.90;;;;;;4979152;28;20489;-83
2022/12/01 07:53:35;;;;;;;60.50;22.30;;;6.20;99.90;;;;;;4980766;28;20571;-83
2022/12/01 07:56:04;;;;;;;47.97;21.93;;;6.40;99.90;;;;;;4979894;28;20455;-83
2022/12/01 07:58:31;;;;;;;46.67;22.67;;;6.30;99.90;;;;;;4979670;28;20530;-84
2022/12/01 08:00:58;;;;;;;54.77;22.63;;;6.30;99.90;;;;;;4974606;28;20554;-83
2022/12/01 08:03:26;;;;;;;43.10;20.07;;;6.20;99.90;;;;;;4975180;28;20898;-83
2022/12/01 08:05:57;;;;;;;32.00;18.53;;;6.30;99.90;;;;;;4978222;28;20477;-83
2022/12/01 08:08:24;;;;;;;45.13;20.37;;;6.30;99.90;;;;;;4958688;28;20482;-81
2022/12/01 08:10:51;;;;;;;33.23;17.13;;;6.20;99.90;;;;;;4966461;28;20461;-82
2022/12/01 08:13:19;;;;;;;38.20;17.87;;;6.20;99.90;;;;;;4977933;28;21025;-83
2022/12/01 08:15:45;;;;;;;40.77;17.97;;;6.20;99.90;;;;;;4977694;28;20458;-82
2022/12/01 08:18:12;;;;;;;41.17;18.90;;;6.20;99.90;;;;;;4975767;28;20573;-83
2022/12/01 08:20:40;;;;;;;36.83;19.07;;;6.10;99.90;;;;;;4971943;28;20462;-83
2022/12/01 08:23:07;;;;;;;35.17;17.53;;;6.20;99.90;;;;;;4973918;28;20544;-83
2022/12/01 08:25:34;;;;;;;39.13;20.10;;;6.10;99.90;;;;;;4968167;28;20457;-82
2022/12/01 08:28:01;;;;;;;43.50;20.43;;;6.10;99.90;;;;;;4976835;28;20481;-82
2022/12/01 08:30:28;;;;;;;42.73;19.80;;;6.20;99.90;;;;;;4977582;28;20542;-82
2022/12/01 08:32:57;;;;;;;43.73;17.07;;;6.20;99.90;;;;;;4978166;28;20491;-83
2022/12/01 08:35:24;;;;;;;39.07;21.27;;;6.30;99.90;;;;;;4977768;28;20468;-83
2022/12/01 08:37:53;;;;;;;42.47;18.97;;;6.10;99.90;;;;;;4974226;28;20568;-82
2022/12/01 08:40:20;;;;;;;44.23;20.27;;;6.20;99.90;;;;;;4976051;28;20457;-83
2022/12/01 08:42:47;;;;;;;39.93;20.90;;;6.20;99.90;;;;;;4976720;28;20452;-83
2022/12/01 08:45:14;;;;;;;40.23;20.03;;;6.20;99.90;;;;;;4977386;28;20984;-83
2022/12/01 08:47:41;;;;;;;51.47;20.07;;;6.20;99.90;;;;;;4977504;28;20487;-83
2022/12/01 08:50:09;;;;;;;48.00;21.03;;;6.20;99.90;;;;;;4977962;28;20458;-82
2022/12/01 08:52:37;;;;;;;39.73;19.70;;;6.40;99.90;;;;;;4978507;28;20517;-81
2022/12/01 08:55:06;;;;;;;35.80;18.33;;;6.30;99.90;;;;;;4977992;28;21075;-82
2022/12/01 08:57:33;;;;;;;33.27;15.53;;;6.40;99.90;;;;;;4978240;28;20482;-83
2022/12/01 09:00:00;;;;;;;37.23;18.97;;;6.50;99.90;;;;;;4974644;28;20531;-83
2022/12/01 09:02:27;;;;;;;32.80;17.00;;;6.60;99.90;;;;;;4968817;28;20835;-83
2022/12/01 09:04:54;;;;;;;26.67;15.80;;;6.70;99.90;;;;;;4978190;28;21115;-82
2022/12/01 09:07:21;;;;;;;25.80;15.00;;;6.70;99.90;;;;;;4977248;28;20564;-84
2022/12/01 09:09:48;;;;;;;28.10;15.17;;;6.70;99.90;;;;;;4976759;28;20453;-83
2022/12/01 09:12:16;;;;;;;30.13;15.53;;;6.60;99.90;;;;;;4977512;28;20455;-83
2022/12/01 09:14:46;;;;;;;29.47;14.60;;;6.70;99.90;;;;;;4977624;28;20486;-83
2022/12/01 09:17:15;;;;;;;24.60;13.60;;;6.70;99.90;;;;;;4976970;28;20478;-84
2022/12/01 09:19:41;;;;;;;35.23;15.60;;;6.60;99.90;;;;;;4977212;28;20452;-83
2022/12/01 09:22:08;;;;;;;25.03;13.17;;;6.60;99.90;;;;;;4977035;28;20944;-83
2022/12/01 09:24:35;;;;;;;26.40;14.50;;;6.70;99.90;;;;;;4977193;28;20450;-84
2022/12/01 09:27:02;;;;;;;26.67;14.67;;;6.70;99.90;;;;;;4976907;28;20481;-83
2022/12/01 09:29:31;;;;;;;26.87;14.40;;;6.70;99.90;;;;;;4977315;28;20462;-84
2022/12/01 09:31:59;;;;;;;24.13;13.60;;;6.60;99.90;;;;;;4977408;28;20455;-83
2022/12/01 09:34:27;;;;;;;25.13;14.83;;;6.70;99.90;;;;;;4976642;28;20542;-83
2022/12/01 09:36:56;;;;;;;28.43;13.97;;;6.80;99.90;;;;;;4977135;28;20463;-83
2022/12/01 09:39:23;;;;;;;22.40;13.30;;;6.70;99.90;;;;;;4976191;28;20455;-82
2022/12/01 09:41:55;;;;;;;26.60;14.80;;;6.80;99.90;;;;;;4977823;28;21016;-82
2022/12/01 09:44:35;;;;;;;31.33;14.67;;;6.80;99.90;;;;;;4977428;28;20913;-83
2022/12/01 09:47:11;;;;;;;31.13;15.43;;;6.50;99.90;;;;;;4977089;28;20478;-84
2022/12/01 09:49:47;;;;;;;26.60;15.13;;;6.60;99.90;;;;;;4977428;28;20463;-83
2022/12/01 09:52:18;;;;;;;26.60;14.30;;;6.60;99.90;;;;;;4977339;28;20460;-83
2022/12/01 09:54:45;;;;;;;33.80;14.60;;;6.80;99.90;;;;;;4977425;28;20507;-84
2022/12/01 09:57:17;;;;;;;23.60;14.87;;;6.80;99.90;;;;;;4958248;28;20491;-84
2022/12/01 09:59:46;;;;;;;22.30;13.87;;;6.80;99.90;;;;;;4970532;28;20463;-83
2022/12/01 10:02:26;;;;;;;21.77;12.80;;;6.90;99.90;;;;;;4977079;28;20463;-84
2022/12/01 10:04:56;;;;;;;27.13;13.60;;;7.00;99.90;;;;;;4977513;28;20466;-84
2022/12/01 10:07:28;;;;;;;23.40;12.80;;;7.00;99.90;;;;;;4978063;28;20481;-84
2022/12/01 10:09:58;;;;;;;25.57;14.17;;;7.10;99.90;;;;;;4991836;28;20508;-83
2022/12/01 10:12:29;;;;;;;33.37;18.20;;;7.30;99.90;;;;;;4988201;28;20549;-83
2022/12/01 10:15:10;;;;;;;27.00;15.30;;;7.10;99.90;;;;;;4976274;28;20490;-82
2022/12/01 10:17:45;;;;;;;30.17;16.30;;;7.00;99.90;;;;;;4976787;28;20571;-83
2022/12/01 10:20:16;;;;;;;24.23;15.50;;;7.10;99.90;;;;;;4975671;28;20525;-84
2022/12/01 10:23:02;;;;;;;22.63;14.03;;;7.10;99.90;;;;;;4976972;28;20545;-83
2022/12/01 10:25:40;;;;;;;25.27;16.47;;;7.20;99.90;;;;;;4976151;28;21208;-83
2022/12/01 10:28:22;;;;;;;30.53;17.40;;;7.30;99.90;;;;;;4976518;28;20802;-83
2022/12/01 10:30:52;;;;;;;31.87;16.97;;;7.20;99.90;;;;;;4976967;28;20485;-82
2022/12/01 10:33:24;;;;;;;27.10;17.63;;;7.20;99.90;;;;;;4975857;28;20570;-84
2022/12/01 10:35:51;;;;;;;28.77;16.53;;;7.50;99.90;;;;;;4976325;28;20955;-83
2022/12/01 10:38:25;;;;;;;35.87;18.47;;;7.40;99.90;;;;;;4976962;28;20546;-84
2022/12/01 10:40:52;;;;;;;28.93;17.50;;;7.40;99.90;;;;;;4975191;28;20458;-83
2022/12/01 10:43:31;;;;;;;26.77;15.77;;;7.30;99.90;;;;;;4975360;28;20448;-83
2022/12/01 10:46:01;;;;;;;24.40;15.83;;;7.50;99.90;;;;;;4976872;28;20519;-84
2022/12/01 10:48:28;;;;;;;31.47;18.87;;;7.30;99.90;;;;;;4976262;28;20479;-83
2022/12/01 10:51:13;;;;;;;33.43;19.23;;;7.40;99.90;;;;;;4976530;28;20909;-83
2022/12/01 10:53:40;;;;;;;29.90;18.10;;;7.40;99.90;;;;;;4976655;28;20956;-83
2022/12/01 10:56:10;;;;;;;36.40;20.80;;;7.20;99.90;;;;;;4976196;28;20462;-83
2022/12/01 10:58:44;;;;;;;44.20;22.40;;;7.10;99.90;;;;;;4975842;28;20668;-83
2022/12/01 11:01:17;;;;;;;34.13;21.20;;;7.10;99.90;;;;;;4976979;28;20510;-83
2022/12/01 11:03:49;;;;;;;33.47;19.20;;;7.00;99.90;;;;;;4977990;28;20476;-83
2022/12/01 11:06:22;;;;;;;34.77;19.53;;;7.20;99.90;;;;;;4982550;28;20503;-83
2022/12/01 11:08:53;;;;;;;42.37;22.93;;;7.20;99.90;;;;;;4981421;28;20536;-84
2022/12/01 11:11:26;;;;;;;32.60;20.47;;;7.20;99.90;;;;;;4980106;28;20542;-84
2022/12/01 11:13:54;;;;;;;34.90;20.67;;;7.40;99.90;;;;;;4980371;28;20485;-84
2022/12/01 11:16:41;;;;;;;41.20;21.67;;;7.50;99.90;;;;;;4980543;28;20448;-83
2022/12/01 11:19:22;;;;;;;46.73;21.53;;;7.60;99.90;;;;;;4980287;28;20530;-85
2022/12/01 11:21:50;;;;;;;36.80;21.40;;;7.80;99.90;;;;;;4979978;28;20455;-84
2022/12/01 11:24:40;;;;;;;44.50;23.57;;;7.70;99.90;;;;;;4980475;28;20528;-84
2022/12/01 11:27:14;;;;;;;41.13;21.93;;;7.60;99.90;;;;;;4980457;28;20482;-84
2022/12/01 11:29:41;;;;;;;38.63;20.87;;;7.70;99.90;;;;;;4980493;28;20451;-84
2022/12/01 11:32:17;;;;;;;39.23;21.93;;;7.80;99.90;;;;;;4983139;28;20494;-84
2022/12/01 11:34:50;;;;;;;45.50;24.17;;;7.80;99.90;;;;;;4979684;28;21049;-84
2022/12/01 11:37:19;;;;;;;43.90;25.30;;;7.50;99.90;;;;;;4979905;28;20478;-83
2022/12/01 11:39:47;;;;;;;47.63;25.97;;;7.60;99.90;;;;;;4979727;28;20485;-83
2022/12/01 11:42:22;;;;;;;50.27;26.87;;;7.50;99.90;;;;;;4980454;28;20462;-82
2022/12/01 11:44:52;;;;;;;44.23;26.43;;;7.60;99.90;;;;;;4981197;28;20450;-84
2022/12/01 11:47:23;;;;;;;48.70;26.67;;;7.60;99.90;;;;;;4983986;28;20502;-83
2022/12/01 11:49:53;;;;;;;57.40;28.40;;;7.60;99.90;;;;;;4984318;28;20530;-84
2022/12/01 11:52:27;;;;;;;52.60;28.33;;;7.70;99.90;;;;;;4983551;28;20530;-83
2022/12/01 11:55:03;;;;;;;43.17;26.13;;;7.70;99.90;;;;;;4979705;28;20564;-83
2022/12/01 11:59:56;;;;;;;50.60;29.47;;;7.80;99.90;;;;;;4976018;22;20500;-81
2022/12/01 12:02:35;;;;;;;52.20;30.23;;;7.90;99.90;;;;;;4959921;29;20861;-81
2022/12/01 12:05:17;;;;;;;52.37;29.00;;;7.80;99.90;;;;;;4974058;28;20466;-81
2022/12/01 12:07:55;;;;;;;48.87;25.97;;;7.80;99.90;;;;;;4979649;28;20960;-79
2022/12/01 12:10:34;;;;;;;60.50;31.87;;;8.00;99.90;;;;;;4964200;28;20455;-82
2022/12/01 12:13:19;;;;;;;62.13;31.77;;;7.70;99.90;;;;;;4960588;29;20449;-81
2022/12/01 12:15:57;;;;;;;58.50;31.40;;;7.50;99.90;;;;;;4959944;29;20459;-82
2022/12/01 12:18:43;;;;;;;58.33;31.03;;;7.60;99.90;;;;;;4960063;29;20470;-80
2022/12/01 12:21:20;;;;;;;53.30;30.50;;;7.50;99.90;;;;;;4942847;29;20453;-81
2022/12/01 12:24:22;;;;;;;58.90;31.17;;;7.50;99.90;;;;;;4946778;29;20953;-81
2022/12/01 12:26:55;;;;;;;62.73;29.43;;;7.60;99.90;;;;;;4956276;29;20976;-81
2022/12/01 12:29:40;;;;;;;55.70;29.90;;;7.80;99.90;;;;;;4961072;29;20483;-82
2022/12/01 12:32:20;;;;;;;53.67;30.83;;;7.90;99.90;;;;;;4960740;29;20456;-81
2022/12/01 12:34:55;;;;;;;51.70;28.13;;;8.00;99.90;;;;;;4959323;29;21008;-81
2022/12/01 12:37:32;;;;;;;57.70;31.70;;;8.00;99.90;;;;;;4961378;29;20488;-82
2022/12/01 12:40:31;;;;;;;51.33;28.43;;;7.90;99.90;;;;;;4959621;29;20997;-81
2022/12/01 12:43:13;;;;;;;56.77;29.43;;;7.80;99.90;;;;;;4960580;28;20901;-81
2022/12/01 12:45:51;;;;;;;62.17;31.43;;;7.70;99.90;;;;;;4961613;29;20514;-81
2022/12/01 12:48:28;;;;;;;57.63;31.20;;;7.70;99.90;;;;;;4959552;29;20562;-81
2022/12/01 12:51:07;;;;;;;57.93;31.07;;;7.50;99.90;;;;;;4959460;29;20459;-82
2022/12/01 12:53:43;;;;;;;65.53;32.30;;;7.40;99.90;;;;;;4959601;29;20452;-82
2022/12/01 12:56:14;;;;;;;62.53;34.33;;;7.40;99.90;;;;;;4960160;29;20486;-82
2022/12/01 12:58:49;;;;;;;55.97;31.67;;;7.40;99.90;;;;;;4961396;29;20491;-82
2022/12/01 13:01:21;;;;;;;55.73;30.53;;;7.40;99.90;;;;;;4962725;29;20458;-82